Time;durP1;ratioP1;P1;durP2;ratioP2;P2;SDS_P1;SDS_P2;PMS_P1;PMS_P2;Temp;Humidity;BMP_temperature;BMP_pressure;BME280_temperature;BME280_humidity;BME280_pressure;Samples;Min_cycle;Max_cycle;Signal;HPM_P1;HPM_P2
2021/09/07 00:00:09;;;;;;;12.80;10.20;;;;;;;18.90;54.28;97294.28;4974996;28;20247;-67
2021/09/07 00:02:35;;;;;;;11.67;10.40;;;;;;;19.02;54.03;97290.03;4975053;28;20174;-65
2021/09/07 00:05:01;;;;;;;11.33;9.70;;;;;;;19.04;53.90;97293.28;4974991;28;20439;-66
2021/09/07 00:07:26;;;;;;;12.40;10.30;;;;;;;19.00;54.11;97290.22;4974709;28;20657;-66
2021/09/07 00:09:52;;;;;;;12.60;9.87;;;;;;;18.96;54.07;97296.97;4974834;28;20429;-66
2021/09/07 00:12:18;;;;;;;12.30;9.50;;;;;;;18.79;54.82;97296.50;4974997;28;20182;-65
2021/09/07 00:14:44;;;;;;;11.10;9.70;;;;;;;18.74;54.63;97285.69;4974995;28;20185;-65
2021/09/07 00:17:11;;;;;;;15.53;10.40;;;;;;;18.78;54.65;97297.50;4962233;28;20457;-66
2021/09/07 00:19:37;;;;;;;11.20;9.50;;;;;;;18.86;54.08;97286.72;4966298;28;20440;-66
2021/09/07 00:22:03;;;;;;;12.10;9.87;;;;;;;18.85;54.29;97285.06;4973583;28;20447;-68
2021/09/07 00:24:29;;;;;;;12.10;9.80;;;;;;;18.88;54.04;97290.00;4971163;28;20433;-66
2021/09/07 00:26:54;;;;;;;12.60;9.60;;;;;;;18.87;54.04;97282.22;4973129;28;20185;-68
2021/09/07 00:29:20;;;;;;;11.33;9.97;;;;;;;18.86;54.23;97291.19;4967329;28;20185;-68
2021/09/07 00:31:46;;;;;;;15.70;10.40;;;;;;;18.84;54.22;97286.09;4974539;28;20264;-67
2021/09/07 00:34:11;;;;;;;14.07;9.67;;;;;;;18.81;54.36;97286.50;4974470;28;20181;-67
2021/09/07 00:36:37;;;;;;;11.87;10.50;;;;;;;18.84;54.43;97288.75;4973664;28;20692;-66
2021/09/07 00:39:03;;;;;;;18.13;10.00;;;;;;;18.79;54.76;97290.38;4967225;28;20260;-66
2021/09/07 00:41:28;;;;;;;18.17;10.50;;;;;;;18.82;54.52;97280.16;4974713;28;20193;-66
2021/09/07 00:43:54;;;;;;;17.50;9.53;;;;;;;18.87;54.40;97280.38;4974335;28;20421;-68
2021/09/07 00:46:20;;;;;;;11.97;9.57;;;;;;;18.90;54.07;97275.69;4974519;28;20229;-66
2021/09/07 00:48:45;;;;;;;13.60;9.40;;;;;;;18.92;54.09;97278.94;4973882;28;20623;-67
2021/09/07 00:51:11;;;;;;;10.27;9.17;;;;;;;18.97;53.83;97276.53;4973898;28;20649;-67
2021/09/07 00:53:38;;;;;;;11.80;9.17;;;;;;;19.00;53.58;97276.94;4973292;28;20186;-68
2021/09/07 00:56:04;;;;;;;11.23;9.30;;;;;;;19.00;53.52;97279.59;4972895;28;20194;-66
2021/09/07 00:58:31;;;;;;;12.33;9.80;;;;;;;18.92;53.52;97279.78;4972991;28;20908;-67
2021/09/07 01:00:58;;;;;;;11.97;9.27;;;;;;;18.85;53.73;97285.06;4974269;28;20453;-68
2021/09/07 01:03:23;;;;;;;15.20;9.30;;;;;;;18.86;53.60;97284.06;4975288;28;20457;-66
2021/09/07 01:05:49;;;;;;;12.50;9.47;;;;;;;18.85;53.81;97284.25;4977143;28;20444;-68
2021/09/07 01:08:15;;;;;;;12.17;9.20;;;;;;;18.85;53.81;97277.13;4977390;28;20762;-66
2021/09/07 01:10:40;;;;;;;15.07;10.60;;;;;;;18.77;54.00;97279.97;4974694;28;20584;-67
2021/09/07 01:13:06;;;;;;;14.13;9.50;;;;;;;18.76;53.89;97273.03;4974515;28;20189;-67
2021/09/07 01:15:32;;;;;;;12.07;9.60;;;;;;;18.74;54.13;97267.09;4973780;28;20193;-67
2021/09/07 01:17:57;;;;;;;11.10;9.00;;;;;;;18.75;54.40;97267.91;4974495;28;20193;-67
2021/09/07 01:20:23;;;;;;;11.03;9.23;;;;;;;18.72;54.50;97269.13;4969883;28;20217;-67
2021/09/07 01:22:48;;;;;;;13.93;10.17;;;;;;;18.71;54.37;97270.97;4973928;28;20186;-67
2021/09/07 01:25:17;;;;;;;10.63;9.47;;;;;;;18.70;54.38;97276.47;4971743;28;20186;-68
2021/09/07 01:27:42;;;;;;;12.47;9.83;;;;;;;18.68;54.38;97273.22;4973590;28;20188;-68
2021/09/07 01:30:09;;;;;;;11.57;9.90;;;;;;;18.64;54.30;97272.81;4973370;28;20461;-66
2021/09/07 01:32:34;;;;;;;10.70;9.60;;;;;;;18.54;54.28;97267.88;4972428;28;20186;-67
2021/09/07 01:35:00;;;;;;;11.93;9.47;;;;;;;18.31;55.22;97270.91;4973851;28;20504;-66
2021/09/07 01:37:26;;;;;;;14.17;10.20;;;;;;;17.99;56.63;97269.78;4969411;28;20190;-67
2021/09/07 01:39:51;;;;;;;12.70;10.30;;;;;;;17.89;56.97;97267.47;4969432;28;20592;-67
2021/09/07 01:42:17;;;;;;;12.37;10.60;;;;;;;17.90;56.55;97272.56;4973918;28;20425;-68
2021/09/07 01:44:44;;;;;;;14.37;10.37;;;;;;;17.86;56.61;97276.63;4966669;28;20193;-66
2021/09/07 01:47:09;;;;;;;13.57;10.07;;;;;;;17.98;56.17;97273.44;4971685;28;20630;-67
2021/09/07 01:49:36;;;;;;;13.33;10.03;;;;;;;18.04;55.61;97272.63;4974163;28;20426;-66
2021/09/07 01:52:14;;;;;;;11.40;9.37;;;;;;;18.04;55.60;97267.34;4973495;28;20239;-67
2021/09/07 01:54:44;;;;;;;12.23;9.90;;;;;;;17.94;55.62;97268.50;4971512;28;20464;-67
2021/09/07 01:57:12;;;;;;;12.50;9.70;;;;;;;18.04;55.41;97267.34;4973078;28;20479;-68
2021/09/07 01:59:37;;;;;;;12.90;10.50;;;;;;;18.04;55.35;97262.03;4973282;28;20434;-67
2021/09/07 02:02:03;;;;;;;12.43;9.53;;;;;;;18.02;55.33;97262.25;4973205;28;20437;-65
2021/09/07 02:04:29;;;;;;;15.00;10.27;;;;;;;18.01;55.38;97252.66;4973360;28;20186;-66
2021/09/07 02:06:54;;;;;;;13.57;10.00;;;;;;;17.91;56.12;97268.09;4972965;28;20186;-67
2021/09/07 02:09:20;;;;;;;13.20;9.73;;;;;;;17.95;55.72;97262.19;4972783;28;20201;-66
2021/09/07 02:11:46;;;;;;;12.10;9.80;;;;;;;17.96;55.34;97255.88;4972750;28;20722;-66
2021/09/07 02:14:11;;;;;;;11.53;10.30;;;;;;;18.00;55.18;97260.81;4964614;28;20633;-66
2021/09/07 02:16:37;;;;;;;12.80;9.87;;;;;;;17.99;55.59;97259.19;4964384;28;20181;-67
2021/09/07 02:19:03;;;;;;;14.23;10.70;;;;;;;17.98;55.65;97257.53;4966721;28;20603;-66
2021/09/07 02:21:28;;;;;;;14.30;10.20;;;;;;;17.98;56.20;97257.53;4972722;28;20513;-66
2021/09/07 02:23:54;;;;;;;15.07;10.33;;;;;;;18.03;56.20;97255.09;4970109;28;20454;-66
2021/09/07 02:26:20;;;;;;;11.87;9.80;;;;;;;18.04;56.12;97259.38;4958573;28;20181;-66
2021/09/07 02:28:45;;;;;;;15.33;10.30;;;;;;;18.02;56.38;97258.78;4967356;28;20182;-68
2021/09/07 02:31:11;;;;;;;13.20;9.40;;;;;;;17.91;56.52;97266.25;4972068;28;20245;-65
2021/09/07 02:33:36;;;;;;;12.10;10.80;;;;;;;17.86;56.81;97265.19;4972514;28;20293;-66
2021/09/07 02:36:02;;;;;;;13.90;10.43;;;;;;;17.81;56.77;97257.84;4972479;28;20190;-66
2021/09/07 02:38:28;;;;;;;13.53;10.57;;;;;;;17.75;56.57;97258.66;4964987;28;20190;-68
2021/09/07 02:40:57;;;;;;;13.30;11.10;;;;;;;17.68;56.78;97255.97;4972143;28;20206;-66
2021/09/07 02:43:25;;;;;;;15.17;10.90;;;;;;;17.64;57.02;97262.66;4972184;28;20193;-66
2021/09/07 02:45:51;;;;;;;15.37;10.87;;;;;;;17.60;56.87;97262.25;4971917;28;20417;-68
2021/09/07 02:48:16;;;;;;;12.37;10.70;;;;;;;17.55;56.93;97264.66;4972466;28;20413;-67
2021/09/07 02:50:42;;;;;;;14.37;10.70;;;;;;;17.45;57.13;97254.41;4972145;28;20488;-66
2021/09/07 02:53:08;;;;;;;14.37;10.40;;;;;;;17.46;57.36;97257.88;4971973;28;20181;-66
2021/09/07 02:55:33;;;;;;;12.50;10.27;;;;;;;17.49;57.21;97265.44;4969662;28;20193;-66
2021/09/07 02:57:59;;;;;;;13.03;10.40;;;;;;;17.43;57.54;97255.63;4971546;28;20277;-67
2021/09/07 03:00:25;;;;;;;15.60;11.10;;;;;;;17.50;57.30;97261.78;4970966;28;20237;-66
2021/09/07 03:02:50;;;;;;;15.30;10.50;;;;;;;17.52;57.29;97254.44;4971714;28;20182;-67
2021/09/07 03:05:16;;;;;;;15.63;10.43;;;;;;;17.51;57.14;97255.47;4964586;28;20545;-65
2021/09/07 03:07:41;;;;;;;11.73;10.53;;;;;;;17.45;57.20;97259.69;4971766;28;20232;-66
2021/09/07 03:10:08;;;;;;;12.00;9.90;;;;;;;17.32;58.04;97257.00;4971751;28;20189;-66
2021/09/07 03:12:34;;;;;;;16.90;10.90;;;;;;;17.35;57.87;97254.75;4971778;28;20190;-66
2021/09/07 03:14:59;;;;;;;13.90;10.40;;;;;;;17.40;57.80;97261.28;4971733;28;20441;-66
2021/09/07 03:17:25;;;;;;;11.87;10.27;;;;;;;17.41;57.58;97262.94;4971687;28;20420;-65
2021/09/07 03:19:51;;;;;;;10.83;9.50;;;;;;;17.38;57.76;97252.75;4966129;28;20229;-66
2021/09/07 03:22:16;;;;;;;15.33;11.03;;;;;;;17.26;59.04;97253.28;4970788;28;20229;-67
2021/09/07 03:24:42;;;;;;;13.37;10.20;;;;;;;17.34;58.59;97252.28;4969427;28;20197;-67
2021/09/07 03:27:08;;;;;;;14.23;11.57;;;;;;;17.34;58.29;97252.28;4971329;28;20315;-66
2021/09/07 03:29:33;;;;;;;16.30;9.60;;;;;;;17.31;58.35;97242.91;4971466;28;20216;-65
2021/09/07 03:31:59;;;;;;;12.57;10.30;;;;;;;17.29;58.58;97255.53;4970877;28;20210;-67
2021/09/07 03:34:25;;;;;;;12.53;10.23;;;;;;;17.25;58.62;97238.41;4965249;28;20316;-67
2021/09/07 03:36:50;;;;;;;13.00;10.50;;;;;;;17.26;58.97;97245.34;4971691;28;20193;-66
2021/09/07 03:39:16;;;;;;;11.47;10.27;;;;;;;17.25;58.98;97233.13;4964344;28;20186;-66
2021/09/07 03:41:42;;;;;;;13.20;11.00;;;;;;;17.24;59.09;97236.78;4957303;28;20627;-67
2021/09/07 03:44:07;;;;;;;12.20;10.30;;;;;;;17.23;58.94;97240.44;4960575;28;20661;-67
2021/09/07 03:46:33;;;;;;;17.07;11.53;;;;;;;17.19;59.06;97240.00;4971624;28;20189;-66
2021/09/07 03:49:00;;;;;;;15.10;11.77;;;;;;;17.15;59.32;97230.81;4971122;28;20182;-66
2021/09/07 03:51:26;;;;;;;14.93;11.00;;;;;;;17.14;58.94;97236.28;4965919;28;20233;-67
2021/09/07 03:53:51;;;;;;;15.50;11.30;;;;;;;17.10;58.81;97240.34;4971282;28;20875;-66
2021/09/07 03:56:17;;;;;;;16.90;11.57;;;;;;;17.04;58.84;97234.78;4972654;28;20185;-67
2021/09/07 03:58:42;;;;;;;13.00;10.90;;;;;;;17.00;59.15;97236.19;4974751;28;20217;-66
2021/09/07 04:01:09;;;;;;;12.97;11.03;;;;;;;17.02;59.34;97238.66;4974835;28;20740;-67
2021/09/07 04:03:35;;;;;;;16.03;10.20;;;;;;;17.01;58.92;97235.16;4975017;28;20188;-67
2021/09/07 04:06:00;;;;;;;14.07;10.77;;;;;;;16.95;59.20;97243.88;4974728;28;20815;-68
2021/09/07 04:08:26;;;;;;;14.70;10.83;;;;;;;16.97;59.32;97231.28;4974720;28;20802;-66
2021/09/07 04:10:51;;;;;;;12.20;10.90;;;;;;;16.95;59.15;97240.44;4974600;28;20700;-66
2021/09/07 04:13:17;;;;;;;13.60;10.00;;;;;;;16.95;59.10;97235.94;4967109;28;20182;-68
2021/09/07 04:15:43;;;;;;;16.13;11.20;;;;;;;16.94;59.15;97241.41;4973472;28;20565;-67
2021/09/07 04:18:08;;;;;;;12.80;10.50;;;;;;;16.92;59.08;97243.44;4968332;28;20220;-67
2021/09/07 04:20:34;;;;;;;13.70;11.30;;;;;;;16.90;59.16;97246.25;4969252;28;20210;-67
2021/09/07 04:22:59;;;;;;;13.90;10.80;;;;;;;16.90;59.09;97238.31;4965834;28;20230;-68
2021/09/07 04:25:25;;;;;;;16.03;11.00;;;;;;;16.87;59.26;97233.44;4968182;28;20227;-66
2021/09/07 04:27:52;;;;;;;13.20;10.77;;;;;;;16.88;59.80;97243.00;4974197;28;20178;-66
2021/09/07 04:30:18;;;;;;;15.97;11.53;;;;;;;16.92;59.75;97241.59;4974329;28;20218;-68
2021/09/07 04:32:43;;;;;;;14.63;10.90;;;;;;;16.95;59.65;97243.09;4974559;28;20417;-68
2021/09/07 04:35:09;;;;;;;18.57;12.10;;;;;;;16.95;59.68;97243.09;4965718;28;20274;-67
2021/09/07 04:37:35;;;;;;;17.30;11.27;;;;;;;16.94;59.49;97244.91;4968838;28;20194;-67
2021/09/07 04:40:00;;;;;;;21.13;11.93;;;;;;;16.96;59.56;97240.25;4972655;28;20182;-68
2021/09/07 04:42:26;;;;;;;12.63;10.40;;;;;;;16.99;59.42;97239.84;4969428;28;20724;-67
2021/09/07 04:44:51;;;;;;;12.53;9.83;;;;;;;16.98;59.06;97238.22;4971210;28;20261;-66
2021/09/07 04:47:17;;;;;;;13.87;10.83;;;;;;;16.95;59.17;97237.78;4973802;28;20209;-68
2021/09/07 04:49:43;;;;;;;19.77;11.57;;;;;;;16.92;58.88;97243.44;4974097;28;20677;-67
2021/09/07 04:52:08;;;;;;;17.20;11.13;;;;;;;16.88;59.37;97240.34;4974277;28;20213;-66
2021/09/07 04:54:34;;;;;;;16.73;11.60;;;;;;;16.89;59.12;97240.16;4973917;28;20257;-67
2021/09/07 04:57:00;;;;;;;12.57;10.53;;;;;;;16.88;59.47;97243.00;4973901;28;20190;-67
2021/09/07 04:59:26;;;;;;;15.83;11.27;;;;;;;16.90;59.44;97246.25;4973681;28;20185;-66
2021/09/07 05:01:52;;;;;;;13.90;11.50;;;;;;;16.92;59.54;97243.44;4973611;28;20630;-68
2021/09/07 05:04:17;;;;;;;14.93;11.20;;;;;;;16.91;59.35;97245.25;4972389;28;20193;-66
2021/09/07 05:06:43;;;;;;;17.27;11.37;;;;;;;16.75;59.91;97249.00;4973646;28;20185;-66
2021/09/07 05:09:08;;;;;;;16.40;12.30;;;;;;;16.70;60.24;97249.56;4972901;28;20217;-66
2021/09/07 05:11:34;;;;;;;13.33;10.90;;;;;;;16.68;60.56;97248.13;4973685;28;20259;-68
2021/09/07 05:13:59;;;;;;;13.97;11.40;;;;;;;16.68;60.69;97258.72;4965690;28;20182;-66
2021/09/07 05:16:25;;;;;;;16.60;11.83;;;;;;;16.78;60.13;97258.38;4973934;28;20273;-66
2021/09/07 05:18:50;;;;;;;17.83;11.20;;;;;;;16.88;59.58;97258.88;4967431;28;20600;-68
2021/09/07 05:21:16;;;;;;;12.90;10.80;;;;;;;16.98;59.43;97256.75;4973452;28;20198;-68
2021/09/07 05:23:42;;;;;;;15.37;11.57;;;;;;;17.06;59.18;97250.50;4957950;28;20555;-66
2021/09/07 05:26:08;;;;;;;16.47;10.87;;;;;;;17.14;59.07;97257.44;4973129;28;20178;-66
2021/09/07 05:28:33;;;;;;;14.47;11.13;;;;;;;17.19;59.13;97255.88;4971829;28;20810;-68
2021/09/07 05:30:59;;;;;;;17.27;10.80;;;;;;;17.26;58.91;97260.41;4972820;28;20643;-66
2021/09/07 05:33:25;;;;;;;14.37;11.43;;;;;;;17.32;58.93;97260.44;4973250;28;20185;-67
2021/09/07 05:35:51;;;;;;;14.20;11.73;;;;;;;17.35;58.84;97254.75;4972842;28;20182;-65
2021/09/07 05:38:17;;;;;;;15.97;12.20;;;;;;;17.35;58.68;97256.56;4973308;28;20425;-67
2021/09/07 05:40:42;;;;;;;16.97;11.50;;;;;;;17.45;58.42;97265.00;4973456;28;20437;-67
2021/09/07 05:43:08;;;;;;;20.33;12.13;;;;;;;17.55;58.15;97267.28;4955910;28;20579;-68
2021/09/07 05:45:34;;;;;;;18.47;11.53;;;;;;;17.67;58.10;97267.56;4973570;28;20181;-67
2021/09/07 05:47:59;;;;;;;13.60;10.80;;;;;;;17.78;57.99;97274.13;4972763;28;20182;-65
2021/09/07 05:50:25;;;;;;;18.63;11.40;;;;;;;17.85;57.79;97274.16;4962468;28;20300;-67
2021/09/07 05:52:50;;;;;;;14.20;11.90;;;;;;;17.93;57.54;97277.47;4968634;28;20193;-67
2021/09/07 05:55:16;;;;;;;21.37;11.63;;;;;;;18.04;57.86;97272.63;4965887;28;20177;-65
2021/09/07 05:57:42;;;;;;;16.03;11.53;;;;;;;18.13;57.72;97279.44;4973095;28;20229;-67
2021/09/07 06:00:10;;;;;;;22.53;12.47;;;;;;;18.21;57.69;97278.44;4965284;28;20221;-65
2021/09/07 06:02:36;;;;;;;14.20;11.67;;;;;;;18.27;57.32;97282.94;4966870;28;20422;-67
2021/09/07 06:05:02;;;;;;;17.13;11.10;;;;;;;18.34;57.18;97285.59;4971211;28;20982;-67
2021/09/07 06:07:28;;;;;;;23.70;11.80;;;;;;;18.42;56.92;97296.03;4972659;28;20413;-66
2021/09/07 06:09:53;;;;;;;26.07;12.27;;;;;;;18.50;56.69;97295.84;4972988;28;20496;-66
2021/09/07 06:12:19;;;;;;;18.53;11.10;;;;;;;18.59;56.57;97293.81;4973046;28;20217;-66
2021/09/07 06:14:45;;;;;;;32.10;11.80;;;;;;;18.68;56.21;97289.97;4960357;28;20182;-65
2021/09/07 06:17:10;;;;;;;41.87;12.17;;;;;;;18.68;55.73;97295.28;4965762;28;20182;-67
2021/09/07 06:19:36;;;;;;;31.53;14.37;;;;;;;18.69;55.70;97296.06;4964296;28;20186;-67
2021/09/07 06:22:02;;;;;;;33.63;12.03;;;;;;;18.65;55.91;97295.66;4964739;28;20205;-66
2021/09/07 06:24:28;;;;;;;28.13;13.07;;;;;;;18.49;56.10;97291.56;4971822;28;20178;-65
2021/09/07 06:26:53;;;;;;;24.37;12.30;;;;;;;18.53;56.30;97295.44;4972402;28;20430;-66
2021/09/07 06:29:19;;;;;;;33.40;11.90;;;;;;;18.76;55.90;97291.63;4972177;28;20571;-66
2021/09/07 06:31:45;;;;;;;33.03;12.50;;;;;;;18.96;55.59;97298.78;4971416;28;20200;-65
2021/09/07 06:34:11;;;;;;;30.63;13.40;;;;;;;19.19;55.37;97298.41;4964322;28;20178;-65
2021/09/07 06:36:37;;;;;;;23.40;13.30;;;;;;;19.27;53.97;97300.84;4964971;28;20458;-69
2021/09/07 06:39:03;;;;;;;20.70;13.17;;;;;;;19.41;53.43;97303.47;4965256;28;20584;-66
2021/09/07 06:41:28;;;;;;;25.13;12.80;;;;;;;19.62;53.21;97303.22;4972799;28;20200;-66
2021/09/07 06:43:54;;;;;;;18.50;11.63;;;;;;;19.79;52.32;97295.59;4972488;28;20422;-66
2021/09/07 06:46:19;;;;;;;19.20;11.90;;;;;;;20.02;52.03;97298.84;4972303;28;20184;-68
2021/09/07 06:48:45;;;;;;;23.57;10.70;;;;;;;20.20;51.69;97303.47;4972363;28;20185;-66
2021/09/07 06:51:10;;;;;;;21.50;12.83;;;;;;;20.36;51.07;97302.16;4964284;28;20703;-67
2021/09/07 06:53:36;;;;;;;20.20;11.67;;;;;;;20.55;51.24;97293.25;4972488;28;20184;-67
2021/09/07 06:56:02;;;;;;;20.57;12.03;;;;;;;20.60;50.51;97292.63;4964732;28;20183;-68
2021/09/07 06:58:27;;;;;;;21.17;11.70;;;;;;;20.62;50.54;97295.88;4954723;28;20182;-65
2021/09/07 07:00:53;;;;;;;21.97;11.83;;;;;;;20.99;49.86;97301.41;4972000;28;20205;-66
2021/09/07 07:03:19;;;;;;;16.67;11.57;;;;;;;21.31;49.12;97295.19;4969754;28;20194;-69
2021/09/07 07:05:44;;;;;;;18.30;12.00;;;;;;;21.48;48.88;97296.22;4964534;28;20864;-69
2021/09/07 07:08:10;;;;;;;20.93;12.20;;;;;;;21.71;48.70;97302.00;4952522;28;20181;-68
2021/09/07 07:10:36;;;;;;;15.53;11.10;;;;;;;21.88;48.31;97311.06;4960914;28;20839;-66
2021/09/07 07:13:01;;;;;;;19.40;11.33;;;;;;;21.99;47.89;97309.47;4963792;28;20789;-68
2021/09/07 07:15:27;;;;;;;22.03;11.10;;;;;;;22.13;47.60;97307.47;4971234;28;20209;-67
2021/09/07 07:17:52;;;;;;;20.70;11.00;;;;;;;22.35;46.90;97309.66;4958486;28;20182;-67
2021/09/07 07:20:18;;;;;;;14.23;10.27;;;;;;;22.40;46.64;97309.81;4960992;28;20194;-64
2021/09/07 07:22:44;;;;;;;13.60;10.73;;;;;;;22.63;45.93;97308.28;4967176;28;20236;-65
2021/09/07 07:25:10;;;;;;;11.97;10.60;;;;;;;22.89;45.75;97308.94;4972149;28;20184;-67
2021/09/07 07:27:39;;;;;;;15.00;10.53;;;;;;;23.15;45.30;97313.88;4971996;28;20232;-68
2021/09/07 07:30:08;;;;;;;18.80;10.77;;;;;;;23.45;44.70;97307.63;4971461;28;20433;-67
2021/09/07 07:32:33;;;;;;;14.57;10.43;;;;;;;23.38;44.82;97306.09;4975235;28;20517;-66
2021/09/07 07:34:59;;;;;;;27.60;11.00;;;;;;;23.32;45.06;97315.88;4975720;28;20512;-66
2021/09/07 07:37:24;;;;;;;31.50;10.43;;;;;;;23.45;44.47;97317.50;4971686;28;20221;-66
2021/09/07 07:39:50;;;;;;;20.53;10.60;;;;;;;23.44;44.76;97311.34;4973566;28;20174;-67
2021/09/07 07:42:16;;;;;;;15.50;10.53;;;;;;;23.59;44.65;97321.59;4975765;28;20664;-67
2021/09/07 07:44:42;;;;;;;19.60;10.00;;;;;;;23.44;44.94;97322.03;4974772;28;20436;-67
2021/09/07 07:47:07;;;;;;;12.73;10.43;;;;;;;23.67;44.17;97330.28;4975926;28;20186;-66
2021/09/07 07:49:33;;;;;;;11.80;9.63;;;;;;;23.58;43.68;97335.16;4975855;28;20216;-66
2021/09/07 07:51:59;;;;;;;15.07;10.00;;;;;;;24.11;42.64;97340.59;4967775;28;20529;-66
2021/09/07 07:54:24;;;;;;;19.43;12.30;;;;;;;24.23;43.22;97341.38;4975494;28;20216;-65
2021/09/07 07:56:50;;;;;;;16.53;10.20;;;;;;;24.65;42.15;97333.09;4975400;28;20276;-66
2021/09/07 07:59:15;;;;;;;16.80;10.47;;;;;;;24.89;42.20;97342.91;4974961;28;20271;-67
2021/09/07 08:01:41;;;;;;;15.83;9.90;;;;;;;25.06;41.28;97340.25;4975240;28;20259;-66
2021/09/07 08:04:06;;;;;;;16.63;10.07;;;;;;;24.54;41.58;97336.63;4975506;28;20189;-66
2021/09/07 08:06:34;;;;;;;12.33;9.43;;;;;;;24.90;41.12;97340.00;4975590;28;20182;-67
2021/09/07 08:08:59;;;;;;;13.07;9.93;;;;;;;25.12;40.84;97334.75;4975184;28;20671;-67
2021/09/07 08:11:25;;;;;;;17.27;9.43;;;;;;;25.22;40.07;97325.22;4976052;28;20492;-67
2021/09/07 08:13:51;;;;;;;11.93;9.23;;;;;;;25.43;40.13;97324.50;4993888;28;20179;-66
2021/09/07 08:16:18;;;;;;;13.93;9.37;;;;;;;25.54;40.07;97325.47;4990640;28;20210;-65
2021/09/07 08:18:43;;;;;;;12.93;8.73;;;;;;;25.48;40.37;97331.00;4988484;28;20425;-69
2021/09/07 08:21:09;;;;;;;14.00;9.07;;;;;;;25.43;41.21;97323.72;4978277;28;20426;-67
2021/09/07 08:23:35;;;;;;;21.27;10.20;;;;;;;25.71;40.76;97329.97;4989185;28;20244;-66
2021/09/07 08:26:01;;;;;;;13.83;8.47;;;;;;;25.49;40.49;97338.81;4987903;28;20189;-66
2021/09/07 08:28:26;;;;;;;10.03;8.23;;;;;;;25.49;40.02;97332.63;4980884;28;20182;-66
2021/09/07 08:30:52;;;;;;;20.30;8.63;;;;;;;25.65;39.22;97330.97;4976543;28;20731;-66
2021/09/07 08:33:18;;;;;;;13.20;8.97;;;;;;;25.60;38.68;97327.16;4976618;28;20248;-66
2021/09/07 08:35:44;;;;;;;14.90;8.20;;;;;;;26.14;37.20;97323.06;4976476;28;20217;-66
2021/09/07 08:38:10;;;;;;;20.77;8.60;;;;;;;26.13;37.17;97326.00;4968544;28;20441;-66
2021/09/07 08:40:37;;;;;;;14.57;8.17;;;;;;;26.06;37.26;97326.16;4975378;28;20236;-65
2021/09/07 08:43:04;;;;;;;9.43;7.43;;;;;;;26.03;36.99;97330.13;4974258;28;20443;-66
2021/09/07 08:45:30;;;;;;;12.90;8.00;;;;;;;26.39;36.32;97319.03;4974265;28;20940;-67
2021/09/07 08:47:57;;;;;;;15.80;8.93;;;;;;;26.55;36.11;97328.06;4974542;28;20466;-65
2021/09/07 08:50:23;;;;;;;18.13;8.50;;;;;;;26.59;35.92;97323.03;4970534;28;20212;-67
2021/09/07 08:52:48;;;;;;;12.77;7.73;;;;;;;26.82;35.24;97327.28;4971615;28;20425;-71
2021/09/07 08:55:14;;;;;;;13.60;8.10;;;;;;;26.84;35.04;97335.91;4958953;28;20181;-69
2021/09/07 08:57:40;;;;;;;12.77;7.97;;;;;;;26.99;34.50;97332.53;4974405;28;20244;-67
2021/09/07 09:00:06;;;;;;;15.53;9.47;;;;;;;27.28;33.54;97329.56;4974263;28;20248;-67
2021/09/07 09:02:41;;;;;;;17.00;7.70;;;;;;;27.29;34.14;97333.88;4974628;28;20422;-67
2021/09/07 09:05:08;;;;;;;10.43;7.73;;;;;;;27.30;34.18;97340.88;4972134;28;20790;-68
2021/09/07 09:07:34;;;;;;;8.17;7.27;;;;;;;27.48;33.25;97336.16;4969221;28;20437;-67
2021/09/07 09:09:59;;;;;;;13.80;7.50;;;;;;;27.63;33.02;97346.25;4967916;28;20438;-66
2021/09/07 09:12:36;;;;;;;15.90;7.93;;;;;;;27.45;31.67;97342.88;4973085;28;20460;-67
2021/09/07 09:15:15;;;;;;;17.67;7.10;;;;;;;27.68;31.81;97359.72;4974636;28;20189;-65
2021/09/07 09:17:42;;;;;;;8.97;7.80;;;;;;;27.99;30.59;97349.13;4974372;28;20796;-66
2021/09/07 09:20:18;;;;;;;11.40;8.10;;;;;;;27.87;30.79;97343.94;4957244;28;20740;-67
2021/09/07 09:22:48;;;;;;;9.10;7.33;;;;;;;27.97;31.14;97346.72;4970164;28;20935;-67
2021/09/07 09:25:20;;;;;;;7.73;6.93;;;;;;;28.01;31.22;97355.88;4968453;28;20904;-68
2021/09/07 09:27:49;;;;;;;16.60;7.30;;;;;;;28.25;30.73;97355.44;4973429;28;20430;-66
2021/09/07 09:30:16;;;;;;;8.93;7.23;;;;;;;28.40;30.61;97354.72;4957963;28;20441;-65
2021/09/07 09:32:52;;;;;;;7.83;7.00;;;;;;;28.47;30.22;97349.88;4973986;28;20539;-68
2021/09/07 09:35:19;;;;;;;9.57;7.17;;;;;;;28.42;31.20;97352.53;4959164;28;20461;-66
2021/09/07 09:37:58;;;;;;;7.93;7.07;;;;;;;28.22;30.90;97344.41;4967188;28;20517;-68
2021/09/07 09:40:23;;;;;;;8.40;7.10;;;;;;;28.45;30.57;97345.84;4960962;28;20441;-66
2021/09/07 09:42:49;;;;;;;18.10;7.47;;;;;;;28.16;30.54;97340.88;4973703;28;20421;-65
2021/09/07 09:45:16;;;;;;;8.77;7.87;;;;;;;27.90;31.71;97341.56;4973987;28;20188;-66
2021/09/07 09:47:51;;;;;;;8.20;7.23;;;;;;;28.16;31.89;97340.88;4973661;28;20186;-67
2021/09/07 09:50:18;;;;;;;9.07;7.00;;;;;;;28.16;32.46;97343.56;4955806;28;20426;-68
2021/09/07 09:52:45;;;;;;;21.53;7.70;;;;;;;28.34;32.06;97340.44;4962555;28;20425;-67
2021/09/07 09:55:13;;;;;;;10.07;7.33;;;;;;;28.27;31.61;97342.53;4972189;28;20421;-68
2021/09/07 09:57:39;;;;;;;52.27;9.00;;;;;;;28.43;31.24;97347.97;4971903;28;20504;-65
2021/09/07 10:00:07;;;;;;;13.13;7.50;;;;;;;28.46;30.47;97347.47;4972963;28;20452;-67
2021/09/07 10:02:33;;;;;;;28.33;8.20;;;;;;;28.54;29.82;97344.25;4973337;28;20612;-65
2021/09/07 10:04:59;;;;;;;23.53;7.60;;;;;;;28.65;29.23;97355.88;4965724;28;20441;-66
2021/09/07 10:07:26;;;;;;;19.20;8.17;;;;;;;28.82;29.39;97350.25;4973266;28;20552;-66
2021/09/07 10:09:52;;;;;;;11.67;7.60;;;;;;;28.92;28.62;97338.69;4965328;28;20421;-67
2021/09/07 10:12:28;;;;;;;15.33;8.13;;;;;;;29.19;28.87;97349.19;4971659;28;20471;-64
2021/09/07 10:20:13;;;;;;;11.00;7.03;;;;;;;28.79;29.33;97334.59;4966133;28;20778;-66
2021/09/07 10:25:58;;;;;;;9.20;6.93;;;;;;;29.34;28.62;97326.81;4965331;28;20426;-65
2021/09/07 10:28:35;;;;;;;9.07;7.13;;;;;;;29.06;29.16;97330.84;4959314;28;20460;-66
2021/09/07 10:31:07;;;;;;;10.97;7.27;;;;;;;29.01;29.34;97336.25;4971828;28;21066;-65
2021/09/07 10:33:43;;;;;;;10.20;7.17;;;;;;;29.26;28.47;97333.53;4965085;28;20616;-66
2021/09/07 10:36:22;;;;;;;9.67;7.90;;;;;;;29.37;28.74;97329.00;4971970;28;20425;-66
2021/09/07 10:38:59;;;;;;;10.00;7.10;;;;;;;28.99;29.16;97330.31;4965209;28;20432;-66
2021/09/07 10:41:45;;;;;;;10.40;7.17;;;;;;;29.41;28.71;97321.97;4959156;28;21003;-66
2021/09/07 10:44:16;;;;;;;9.20;7.07;;;;;;;29.41;27.87;97321.16;4972338;28;20499;-65
2021/09/07 10:47:00;;;;;;;9.10;6.77;;;;;;;29.80;27.36;97320.53;4971189;28;20760;-65
2021/09/07 10:49:37;;;;;;;12.90;7.10;;;;;;;29.95;27.26;97316.19;4951700;28;20467;-68
2021/09/07 10:52:15;;;;;;;12.27;7.40;;;;;;;30.01;27.61;97312.38;4972453;28;20461;-67
2021/09/07 10:54:53;;;;;;;9.17;7.27;;;;;;;29.92;27.33;97311.31;4978017;28;20417;-65
2021/09/07 10:57:46;;;;;;;7.67;6.83;;;;;;;29.79;27.46;97304.63;4958292;28;20464;-65
2021/09/07 11:00:20;;;;;;;7.23;6.53;;;;;;;29.43;27.86;97300.09;4953722;28;20429;-65
2021/09/07 11:02:51;;;;;;;10.63;6.70;;;;;;;29.47;27.79;97303.88;4954640;28;20426;-64
2021/09/07 11:05:23;;;;;;;11.43;6.40;;;;;;;29.13;28.40;97296.31;4957246;28;20780;-65
2021/09/07 11:07:49;;;;;;;7.27;6.57;;;;;;;29.31;28.17;97292.25;4971628;28;20595;-69
2021/09/07 11:10:14;;;;;;;9.97;6.50;;;;;;;29.66;27.57;97303.28;4971831;28;20516;-65
2021/09/07 11:12:50;;;;;;;8.90;7.93;;;;;;;29.54;27.38;97299.00;4972161;28;20508;-66
2021/09/07 11:15:21;;;;;;;10.30;7.40;;;;;;;30.00;27.11;97291.84;4952959;28;20178;-68
2021/09/07 11:17:50;;;;;;;7.70;6.97;;;;;;;29.85;26.87;97290.81;4968596;28;20422;-66
2021/09/07 11:20:16;;;;;;;7.37;6.53;;;;;;;29.85;26.99;97284.59;4958834;28;20472;-67
2021/09/07 11:22:42;;;;;;;12.93;6.93;;;;;;;29.72;27.73;97286.00;4960251;28;20481;-65
2021/09/07 11:25:13;;;;;;;9.77;7.07;;;;;;;29.72;26.76;97280.59;4963802;28;21359;-67
2021/09/07 11:27:59;;;;;;;7.73;6.87;;;;;;;30.13;27.01;97280.44;4972026;28;20525;-65